Time;durP1;ratioP1;P1;durP2;ratioP2;P2;SDS_P1;SDS_P2;PMS_P1;PMS_P2;Temp;Humidity;BMP_temperature;BMP_pressure;BME280_temperature;BME280_humidity;BME280_pressure;Samples;Min_cycle;Max_cycle;Signal;HPM_P1;HPM_P2
2023/01/26 00:02:17;;;;;;;0.40;0.40;;;;;;;2.66;76.16;97688.59;5003886;28;20549;-56
2023/01/26 00:04:43;;;;;;;0.40;0.40;;;;;;;2.51;76.14;97660.75;5004723;28;20481;-57
2023/01/26 00:07:10;;;;;;;1.75;0.50;;;;;;;2.60;76.12;97680.81;5002070;28;20536;-56
2023/01/26 00:09:36;;;;;;;4.78;1.17;;;;;;;2.53;77.15;97680.41;5003296;28;20054;-58
2023/01/26 00:12:03;;;;;;;0.40;0.40;;;;;;;2.53;77.54;97674.94;5003985;28;20050;-56
2023/01/26 00:14:48;;;;;;;0.40;0.40;;;;;;;1.99;77.73;97588.22;5004644;28;20105;-59
2023/01/26 00:17:24;;;;;;;0.30;0.30;;;;;;;2.53;78.07;97680.41;5002459;28;20068;-55
2023/01/26 00:19:53;;;;;;;0.50;0.50;;;;;;;2.58;79.25;97683.03;5004210;28;20053;-58
2023/01/26 00:22:20;;;;;;;0.40;0.40;;;;;;;2.39;79.12;97652.22;5002800;28;20058;-58
2023/01/26 00:24:47;;;;;;;1.77;1.67;;;;;;;2.34;78.45;97600.41;5004127;28;20056;-56
2023/01/26 00:27:14;;;;;;;0.40;0.40;;;;;;;2.74;77.74;97670.66;5003269;28;20512;-59
2023/01/26 00:29:40;;;;;;;0.40;0.40;;;;;;;2.62;77.85;97662.19;5004678;28;20479;-56
2023/01/26 00:32:07;;;;;;;1.20;1.20;;;;;;;2.68;79.51;97696.50;5004395;28;20093;-57
2023/01/26 00:34:34;;;;;;;0.50;0.50;;;;;;;2.60;78.91;97673.41;5004399;28;20050;-58
2023/01/26 00:37:01;;;;;;;0.40;0.40;;;;;;;2.56;79.09;97674.34;5003992;28;20054;-56
2023/01/26 00:39:27;;;;;;;0.40;0.40;;;;;;;2.49;80.18;97671.19;5004488;28;20486;-56
2023/01/26 00:42:08;;;;;;;0.40;0.40;;;;;;;2.56;81.41;97674.34;5004118;28;20050;-56
2023/01/26 00:44:36;;;;;;;0.40;0.40;;;;;;;2.60;81.00;97672.59;5004306;28;20265;-59
2023/01/26 00:47:05;;;;;;;0.40;0.40;;;;;;;2.44;80.49;97644.75;5003506;28;20128;-60
2023/01/26 00:49:32;;;;;;;0.40;0.40;;;;;;;2.27;80.14;97606.28;5003945;28;20137;-55
2023/01/26 00:51:59;;;;;;;0.40;0.40;;;;;;;2.57;80.18;97649.41;5003263;28;20133;-57
2023/01/26 00:54:27;;;;;;;0.50;0.45;;;;;;;2.68;81.06;97655.47;5003821;28;20046;-58
2023/01/26 00:56:53;;;;;;;0.40;0.40;;;;;;;2.71;79.94;97649.41;5001937;28;20145;-59
2023/01/26 00:59:20;;;;;;;0.40;0.40;;;;;;;2.34;80.56;97578.56;5004010;28;20516;-59
2023/01/26 01:01:47;;;;;;;0.35;0.35;;;;;;;2.59;80.36;97624.50;5003492;28;20179;-58
2023/01/26 01:04:15;;;;;;;0.40;0.40;;;;;;;2.66;78.80;97625.72;4996848;28;20062;-54
2023/01/26 01:06:42;;;;;;;0.40;0.40;;;;;;;1.87;80.04;97513.38;5003408;28;20057;-60
2023/01/26 01:09:08;;;;;;;0.30;0.30;;;;;;;2.37;80.53;97572.47;5003776;28;20473;-57
2023/01/26 01:11:35;;;;;;;0.40;0.40;;;;;;;2.69;80.86;97625.09;5002985;28;20050;-60
2023/01/26 01:14:02;;;;;;;0.40;0.40;;;;;;;2.08;80.94;97509.13;5006317;28;20057;-60
2023/01/26 01:16:28;;;;;;;0.40;0.40;;;;;;;-0.01;80.11;97172.81;5007092;28;20054;-59
2023/01/26 01:18:56;;;;;;;0.40;0.40;;;;;;;2.70;80.23;97612.25;5006895;28;20489;-60
2023/01/26 01:21:24;;;;;;;0.40;0.40;;;;;;;2.68;80.90;97618.00;5007061;28;20108;-59
2023/01/26 01:23:50;;;;;;;2.65;1.30;;;;;;;1.58;80.59;97424.38;5007094;28;20108;-60
2023/01/26 01:26:17;;;;;;;0.50;0.50;;;;;;;2.77;80.07;97604.41;5006306;28;20050;-60
2023/01/26 01:28:44;;;;;;;0.40;0.40;;;;;;;2.76;80.16;97611.00;5007108;28;20053;-59
2023/01/26 01:31:13;;;;;;;0.40;0.40;;;;;;;2.73;80.27;97603.41;5007120;28;20388;-59
2023/01/26 01:33:41;;;;;;;0.85;0.85;;;;;;;2.76;80.72;97611.00;5006346;28;20049;-60
2023/01/26 01:36:11;;;;;;;0.40;0.40;;;;;;;2.56;81.07;97575.91;5006718;28;20131;-59
2023/01/26 01:38:38;;;;;;;0.40;0.40;;;;;;;2.86;81.13;97603.38;5006950;28;20112;-57
2023/01/26 01:41:06;;;;;;;0.45;0.45;;;;;;;2.65;79.67;97580.34;5006539;28;20050;-57
2023/01/26 01:43:33;;;;;;;0.40;0.40;;;;;;;2.65;80.09;97595.94;5006728;28;20065;-60
2023/01/26 01:46:02;;;;;;;1.85;1.75;;;;;;;2.26;80.27;97510.94;5006092;28;20521;-59
2023/01/26 01:49:07;;;;;;;0.75;0.75;;;;;;;2.65;80.05;97580.34;5006554;28;20086;-58
2023/01/26 01:51:41;;;;;;;0.40;0.40;;;;;;;2.68;81.16;97595.31;5006715;28;20061;-58
2023/01/26 01:54:19;;;;;;;1.02;1.02;;;;;;;2.60;80.29;97593.31;5006142;28;20132;-58
2023/01/26 01:56:52;;;;;;;2.35;2.25;;;;;;;1.69;81.85;97470.59;5006446;28;20058;-54
2023/01/26 01:59:20;;;;;;;;;;;;;;;2.50;82.27;97594.31;5007307;28;20075;-58
2023/01/26 02:01:50;;;;;;;0.40;0.40;;;;;;;2.34;81.95;97589.50;5004713;28;20373;-61
2023/01/26 02:04:20;;;;;;;5.05;0.73;;;;;;;2.34;81.71;97589.50;5006576;28;20053;-58
2023/01/26 02:06:56;;;;;;;0.40;0.40;;;;;;;2.43;82.14;97582.19;5006075;28;20688;-55
2023/01/26 02:12:19;;;;;;;1.30;0.95;;;;;;;2.37;81.37;97556.88;5005807;28;20514;-58
2023/01/26 02:14:46;;;;;;;0.40;0.40;;;;;;;2.39;81.22;97581.16;5006256;28;20081;-55
2023/01/26 02:17:12;;;;;;;0.32;0.32;;;;;;;1.77;81.80;97478.88;5005760;28;20054;-59
2023/01/26 02:19:53;;;;;;;0.40;0.40;;;;;;;2.49;82.48;97583.69;5005890;28;20504;-59
2023/01/26 02:22:32;;;;;;;0.50;0.50;;;;;;;2.51;82.61;97573.28;5005386;28;20050;-56
2023/01/26 02:25:06;;;;;;;1.08;1.02;;;;;;;2.49;81.98;97580.97;5004807;28;20127;-56
2023/01/26 02:27:33;;;;;;;0.40;0.40;;;;;;;2.60;82.58;97577.72;5005937;28;20448;-55
2023/01/26 02:30:02;;;;;;;0.40;0.40;;;;;;;2.67;81.93;97575.34;5004216;28;20570;-56
2023/01/26 02:32:28;;;;;;;0.40;0.40;;;;;;;2.66;81.53;97570.19;5005058;28;20050;-56
2023/01/26 02:34:56;;;;;;;0.40;0.40;;;;;;;2.76;80.30;97556.31;5004680;28;20634;-56
2023/01/26 02:37:23;;;;;;;0.40;0.40;;;;;;;2.46;79.91;97521.44;5005176;28;20116;-59
2023/01/26 02:40:04;;;;;;;0.45;0.45;;;;;;;2.74;80.45;97572.22;5005431;28;20062;-59
2023/01/26 02:42:43;;;;;;;0.40;0.40;;;;;;;2.03;80.69;97446.38;5005905;28;20137;-59
2023/01/26 02:45:13;;;;;;;0.40;0.40;;;;;;;2.80;80.83;97560.03;5005291;28;20046;-59
2023/01/26 02:47:40;;;;;;;0.85;0.65;;;;;;;2.78;80.47;97574.00;5003668;28;20073;-55
2023/01/26 02:50:08;;;;;;;0.40;0.40;;;;;;;2.77;81.41;97566.13;5004944;28;20120;-59
2023/01/26 02:52:35;;;;;;;0.40;0.40;;;;;;;2.77;80.61;97560.66;5005409;28;20057;-59
2023/01/26 02:57:49;;;;;;;0.40;0.40;;;;;;;2.20;81.25;97473.88;5005286;28;20131;-55
2023/01/26 03:00:18;;;;;;;0.52;0.52;;;;;;;2.79;80.86;97552.94;5005226;28;20104;-60
2023/01/26 03:02:46;;;;;;;0.40;0.40;;;;;;;2.77;80.91;97538.78;5005442;28;20057;-56
2023/01/26 03:05:13;;;;;;;0.30;0.30;;;;;;;2.80;80.51;97544.44;5005092;28;20057;-55
2023/01/26 03:07:40;;;;;;;0.40;0.40;;;;;;;0.48;80.13;97181.13;5005459;28;20050;-59
2023/01/26 03:10:08;;;;;;;0.40;0.40;;;;;;;2.75;80.35;97546.50;5005242;28;20505;-56
2023/01/26 03:12:35;;;;;;;0.40;0.40;;;;;;;2.10;80.43;97420.28;5004866;28;20057;-59
2023/01/26 03:17:46;;;;;;;0.40;0.40;;;;;;;2.42;80.34;97460.28;5004486;28;20065;-58
2023/01/26 03:28:28;;;;;;;0.60;0.60;;;;;;;2.73;80.40;97504.97;5004193;28;20826;-59
2023/01/26 03:30:56;;;;;;;0.60;0.60;;;;;;;2.81;79.96;97515.94;5003571;28;20125;-56
2023/01/26 03:33:23;;;;;;;0.95;0.95;;;;;;;2.65;81.61;97516.63;5004616;28;20567;-56
2023/01/26 03:35:53;;;;;;;0.40;0.40;;;;;;;2.79;81.29;97518.22;5003817;28;20060;-56
2023/01/26 03:38:20;;;;;;;0.55;0.45;;;;;;;2.75;81.37;97513.66;5004558;28;20054;-59
2023/01/26 03:57:17;;;;;;;0.30;0.30;;;;;;;2.72;81.97;97495.13;5004343;28;20054;-59
2023/01/26 03:59:44;;;;;;;16.20;6.53;;;;;;;2.51;81.99;97447.50;5004505;28;20137;-56
2023/01/26 04:10:27;;;;;;;0.40;0.40;;;;;;;2.04;81.45;97372.31;5004360;28;20077;-58
2023/01/26 04:23:56;;;;;;;0.40;0.40;;;;;;;2.86;82.20;97479.50;5003803;28;20154;-58
2023/01/26 04:26:25;;;;;;;0.40;0.40;;;;;;;2.88;81.93;97479.97;5003813;28;20572;-59
2023/01/26 04:28:52;;;;;;;0.50;0.50;;;;;;;2.38;82.68;97399.16;5004254;28;20061;-56
2023/01/26 04:31:18;;;;;;;0.63;0.63;;;;;;;2.93;82.34;97450.56;5002672;28;20057;-59
2023/01/26 04:33:46;;;;;;;6.22;5.80;;;;;;;2.93;82.24;97482.59;5004312;28;21177;-56
2023/01/26 04:36:12;;;;;;;0.40;0.40;;;;;;;2.97;82.06;97483.59;5002600;28;20498;-59
2023/01/26 04:38:39;;;;;;;0.40;0.40;;;;;;;2.70;82.51;97459.09;5002382;28;20116;-56
2023/01/26 04:41:05;;;;;;;0.50;0.50;;;;;;;2.74;82.62;97452.69;5003659;28;20062;-55
2023/01/26 04:43:32;;;;;;;0.40;0.40;;;;;;;2.88;82.13;97447.16;5004462;28;20136;-59
2023/01/26 04:46:01;;;;;;;0.40;0.40;;;;;;;2.64;81.56;97424.78;5003518;28;20662;-59
2023/01/26 04:48:28;;;;;;;2.45;2.25;;;;;;;2.89;82.31;97465.19;5004064;28;20382;-58
2023/01/26 04:50:57;;;;;;;0.40;0.40;;;;;;;2.91;82.22;97474.69;5005920;28;20484;-55
2023/01/26 04:53:24;;;;;;;0.40;0.40;;;;;;;2.98;80.93;97457.84;5006297;28;20519;-59
2023/01/26 04:55:51;;;;;;;0.40;0.40;;;;;;;2.98;79.96;97457.84;5007209;28;20529;-60
2023/01/26 04:58:18;;;;;;;0.40;0.40;;;;;;;2.97;79.93;97456.25;5007723;28;20084;-57
2023/01/26 05:00:52;;;;;;;0.40;0.40;;;;;;;2.97;80.23;97458.97;5007563;28;20132;-56
2023/01/26 05:03:20;;;;;;;0.30;0.30;;;;;;;2.29;82.04;97373.69;5007478;28;20521;-56
2023/01/26 05:05:51;;;;;;;2.90;1.08;;;;;;;2.47;84.07;97432.81;5005523;28;20582;-56
2023/01/26 05:08:19;;;;;;;0.70;0.70;;;;;;;1.76;86.35;97380.88;5007283;28;20137;-59
2023/01/26 05:10:46;;;;;;;0.40;0.40;;;;;;;1.64;87.09;97356.03;5006408;28;20492;-59
2023/01/26 05:13:13;;;;;;;0.40;0.40;;;;;;;2.32;86.90;97444.13;5007434;28;20464;-59
2023/01/26 05:15:40;;;;;;;0.40;0.40;;;;;;;2.43;87.23;97448.25;5007210;28;20049;-59
2023/01/26 05:18:08;;;;;;;0.40;0.40;;;;;;;2.52;86.70;97449.09;5005745;28;20060;-60
2023/01/26 05:20:35;;;;;;;0.40;0.40;;;;;;;0.03;86.01;97033.06;5006898;28;20112;-56
2023/01/26 05:23:02;;;;;;;0.50;0.50;;;;;;;2.74;85.73;97454.59;5007231;28;20057;-59
2023/01/26 05:25:28;;;;;;;0.50;0.50;;;;;;;2.83;84.51;97452.72;5006191;28;20410;-56
2023/01/26 05:27:55;;;;;;;1.15;1.15;;;;;;;2.78;84.77;97439.19;5005486;28;20058;-58
2023/01/26 05:30:22;;;;;;;0.40;0.40;;;;;;;2.62;85.05;97441.50;5006909;28;20080;-59
2023/01/26 05:32:49;;;;;;;0.45;0.45;;;;;;;2.32;85.66;97405.84;5006857;28;20080;-57
2023/01/26 05:35:16;;;;;;;0.40;0.40;;;;;;;2.45;86.14;97405.78;5006669;28;20054;-56
2023/01/26 05:37:44;;;;;;;0.40;0.40;;;;;;;2.65;85.75;97419.00;5006600;28;20053;-59
2023/01/26 05:40:11;;;;;;;0.40;0.40;;;;;;;2.77;85.83;97438.38;5006882;28;20053;-58
2023/01/26 05:42:38;;;;;;;0.85;0.85;;;;;;;2.70;83.95;97412.59;5005099;28;20054;-60
2023/01/26 05:45:05;;;;;;;0.50;0.50;;;;;;;2.84;84.50;97430.56;5005406;28;20584;-59
2023/01/26 05:47:32;;;;;;;0.40;0.40;;;;;;;2.80;84.07;97412.31;5005932;28;20128;-60
2023/01/26 05:49:59;;;;;;;0.40;0.40;;;;;;;2.55;83.81;97371.94;5005165;28;20120;-56
2023/01/26 05:52:25;;;;;;;1.55;1.45;;;;;;;2.89;84.33;97415.94;5006380;28;20406;-60
2023/01/26 05:54:52;;;;;;;0.40;0.40;;;;;;;2.69;84.98;97408.22;5004969;28;20104;-59
2023/01/26 05:57:19;;;;;;;2.33;2.22;;;;;;;2.92;85.29;97410.63;5001560;28;20054;-56
2023/01/26 05:59:45;;;;;;;12.13;4.13;;;;;;;2.76;84.34;97389.47;5002809;28;20469;-61
2023/01/26 06:02:12;;;;;;;10.07;9.52;;;;;;;2.74;84.22;97413.56;5005889;28;20089;-55
2023/01/26 06:04:39;;;;;;;0.60;0.60;;;;;;;2.56;84.18;97385.28;5006016;28;20069;-57
2023/01/26 06:07:05;;;;;;;16.00;2.08;;;;;;;2.67;83.89;97402.28;5005624;28;20112;-60
2023/01/26 06:09:32;;;;;;;0.43;0.43;;;;;;;2.66;84.19;97400.66;5006557;28;20528;-60
2023/01/26 06:11:59;;;;;;;0.73;0.73;;;;;;;2.52;84.95;97408.09;5005117;28;20081;-60
2023/01/26 06:14:25;;;;;;;0.47;0.47;;;;;;;2.50;85.61;97402.94;5006377;28;20081;-56
2023/01/26 06:16:53;;;;;;;0.30;0.30;;;;;;;2.52;86.09;97399.91;5005575;28;20543;-55
2023/01/26 06:19:20;;;;;;;0.40;0.40;;;;;;;2.71;85.39;97404.09;5006398;28;20049;-55
2023/01/26 06:21:47;;;;;;;0.40;0.40;;;;;;;2.63;84.01;97384.88;5005542;28;20145;-60
2023/01/26 06:24:13;;;;;;;2.58;2.35;;;;;;;2.80;83.88;97409.59;5006278;28;20111;-55
2023/01/26 06:26:40;;;;;;;0.40;0.40;;;;;;;2.69;83.89;97410.97;5004694;28;20544;-60
2023/01/26 06:29:08;;;;;;;0.40;0.40;;;;;;;2.76;83.79;97408.63;5005985;28;20045;-60
2023/01/26 06:31:35;;;;;;;1.15;1.15;;;;;;;2.57;83.02;97383.38;5005973;28;20057;-56
2023/01/26 06:34:04;;;;;;;1.17;1.08;;;;;;;2.76;83.67;97411.34;5005979;28;20116;-56
2023/01/26 06:36:31;;;;;;;1.42;1.33;;;;;;;2.72;85.03;97410.34;5005487;28;20512;-60
2023/01/26 06:38:58;;;;;;;7.05;2.72;;;;;;;2.87;84.45;97412.72;5005341;28;20148;-60
2023/01/26 06:41:26;;;;;;;4.47;0.88;;;;;;;2.91;84.44;97413.69;5003205;28;20042;-56
2023/01/26 06:43:53;;;;;;;2.83;1.15;;;;;;;2.60;85.54;97375.38;5004246;28;20057;-56
2023/01/26 06:46:20;;;;;;;0.40;0.40;;;;;;;2.70;85.55;97375.09;5006040;28;20058;-55
2023/01/26 06:48:47;;;;;;;1.23;1.13;;;;;;;2.68;85.92;97369.16;5005332;28;20049;-55
2023/01/26 06:51:19;;;;;;;1.05;1.05;;;;;;;3.02;85.80;97415.03;5004894;28;20065;-60
2023/01/26 06:53:54;;;;;;;3.07;2.87;;;;;;;3.15;84.94;97407.91;5003126;28;20061;-57
2023/01/26 06:56:21;;;;;;;0.60;0.60;;;;;;;3.13;86.14;97400.78;5004929;28;20343;-60
2023/01/26 06:58:48;;;;;;;0.40;0.40;;;;;;;3.22;85.85;97397.28;5003618;28;20053;-62
2023/01/26 07:01:25;;;;;;;0.43;0.43;;;;;;;2.79;85.87;97312.25;5004805;28;20591;-56
2023/01/26 07:03:53;;;;;;;1.95;1.67;;;;;;;2.93;85.73;97362.22;5004814;28;20053;-60
2023/01/26 07:06:20;;;;;;;0.50;0.50;;;;;;;3.30;85.25;97394.63;5004611;28;20112;-60
2023/01/26 07:08:47;;;;;;;1.58;0.80;;;;;;;3.27;83.53;97399.91;5004205;28;20136;-60
2023/01/26 07:11:15;;;;;;;1.65;1.60;;;;;;;2.69;84.25;97340.69;4990327;28;21005;-59
2023/01/26 07:13:41;;;;;;;0.40;0.40;;;;;;;3.12;84.82;97376.47;4990612;28;20056;-56
2023/01/26 07:16:13;;;;;;;0.50;0.50;;;;;;;3.23;84.58;97375.09;4983362;28;20054;-60
2023/01/26 07:18:40;;;;;;;0.63;0.63;;;;;;;2.96;84.69;97328.75;4993644;28;20042;-58
2023/01/26 07:21:11;;;;;;;2.45;2.35;;;;;;;3.35;84.68;97369.81;4991062;28;20268;-54
2023/01/26 07:23:38;;;;;;;3.05;1.48;;;;;;;3.42;85.45;97369.34;5001167;28;20046;-60
2023/01/26 07:26:05;;;;;;;0.45;0.45;;;;;;;3.52;83.42;97369.91;4984661;28;20445;-57
2023/01/26 07:28:35;;;;;;;1.38;1.27;;;;;;;3.64;83.50;97367.34;4992711;28;20513;-57
2023/01/26 07:31:05;;;;;;;1.48;0.70;;;;;;;3.37;82.63;97356.63;5006100;28;20046;-55
2023/01/26 07:33:33;;;;;;;0.60;0.60;;;;;;;3.40;83.47;97345.03;5000588;28;20061;-59
2023/01/26 07:36:00;;;;;;;0.50;0.50;;;;;;;3.71;83.35;97372.38;5003888;28;20073;-56
2023/01/26 07:38:28;;;;;;;0.50;0.50;;;;;;;3.19;84.34;97282.97;5007481;28;20057;-55
2023/01/26 07:40:55;;;;;;;2.90;2.70;;;;;;;3.93;83.45;97386.78;5004722;28;20564;-53
2023/01/26 07:43:22;;;;;;;0.90;0.90;;;;;;;4.07;81.13;97365.50;5003494;28;20061;-59
2023/01/26 07:45:51;;;;;;;0.50;0.50;;;;;;;4.01;80.22;97366.81;5004502;28;20046;-58
2023/01/26 07:48:22;;;;;;;0.45;0.45;;;;;;;3.28;80.16;97257.25;5002553;28;20398;-56
2023/01/26 07:50:49;;;;;;;0.50;0.50;;;;;;;4.10;80.17;97364.88;4997448;28;20087;-59
2023/01/26 07:53:21;;;;;;;0.50;0.50;;;;;;;4.21;80.20;97366.16;5007486;28;20057;-56
2023/01/26 07:55:48;;;;;;;0.65;0.65;;;;;;;4.27;80.75;97362.13;5002977;28;20064;-57
2023/01/26 07:58:17;;;;;;;2.03;0.77;;;;;;;4.45;78.16;97366.50;5003504;28;20104;-59
2023/01/26 08:00:46;;;;;;;19.42;1.50;;;;;;;4.51;78.77;97356.97;5004038;28;20054;-60
2023/01/26 08:03:13;;;;;;;8.60;5.63;;;;;;;4.78;78.54;97363.22;5003564;28;20050;-58
2023/01/26 08:05:42;;;;;;;3.38;3.05;;;;;;;4.98;76.31;97355.13;4999553;28;20124;-60
2023/01/26 08:08:09;;;;;;;0.50;0.50;;;;;;;5.09;73.38;97341.88;5005963;28;20133;-59
2023/01/26 08:10:35;;;;;;;0.50;0.50;;;;;;;5.20;73.68;97343.13;5014811;28;20111;-57
2023/01/26 08:13:02;;;;;;;0.60;0.60;;;;;;;4.93;74.28;97283.97;5007803;28;20134;-58
2023/01/26 08:15:29;;;;;;;0.50;0.50;;;;;;;5.53;73.88;97352.38;5012149;28;20095;-57
2023/01/26 08:17:55;;;;;;;0.50;0.50;;;;;;;5.70;72.95;97352.28;5009366;28;20057;-57
2023/01/26 08:20:22;;;;;;;0.50;0.50;;;;;;;5.58;72.57;97332.94;5020428;28;20495;-58
2023/01/26 08:22:49;;;;;;;0.60;0.60;;;;;;;5.11;72.65;97284.66;5010618;28;20573;-55
2023/01/26 08:25:16;;;;;;;0.50;0.50;;;;;;;5.40;73.75;97332.22;5007552;28;20425;-59
2023/01/26 08:27:42;;;;;;;1.02;1.02;;;;;;;5.00;72.11;97291.66;5007339;28;20056;-59
2023/01/26 08:30:10;;;;;;;1.05;1.05;;;;;;;4.86;74.06;97326.75;5006104;28;20104;-56
2023/01/26 08:32:37;;;;;;;2.83;2.58;;;;;;;3.57;79.91;97345.13;5019723;28;20051;-57
2023/01/26 08:35:04;;;;;;;3.03;2.75;;;;;;;0.40;83.02;96890.34;5001925;28;20128;-62
2023/01/26 08:37:30;;;;;;;4.43;2.58;;;;;;;2.61;86.88;97310.53;5023023;28;20115;-56
2023/01/26 08:39:57;;;;;;;0.60;0.60;;;;;;;2.41;88.29;97207.19;5006940;28;20065;-58
2023/01/26 08:42:24;;;;;;;0.40;0.40;;;;;;;3.11;87.58;97326.41;4990897;28;20094;-57
2023/01/26 08:44:51;;;;;;;0.63;0.63;;;;;;;2.90;87.77;97302.66;5002306;28;20058;-57
2023/01/26 08:47:18;;;;;;;0.40;0.40;;;;;;;3.09;88.11;97344.28;5001258;28;20127;-56
2023/01/26 08:49:44;;;;;;;0.40;0.40;;;;;;;3.20;88.24;97320.97;5000202;28;20592;-54
2023/01/26 08:52:11;;;;;;;0.50;0.50;;;;;;;3.36;87.78;97355.03;4998120;28;20050;-57
2023/01/26 08:54:37;;;;;;;0.50;0.50;;;;;;;3.63;88.69;97338.34;5000872;28;20050;-57
2023/01/26 08:57:04;;;;;;;3.60;3.38;;;;;;;3.83;88.97;97354.19;4991382;28;20406;-57
2023/01/26 08:59:31;;;;;;;1.05;0.88;;;;;;;3.80;87.46;97305.50;4998859;28;20467;-58
2023/01/26 09:01:57;;;;;;;0.40;0.40;;;;;;;4.05;86.78;97315.69;5006622;28;20046;-60
2023/01/26 09:04:26;;;;;;;0.50;0.50;;;;;;;3.83;85.80;97332.28;5005612;28;20050;-57
2023/01/26 09:06:53;;;;;;;0.50;0.50;;;;;;;3.39;86.30;97313.31;4997184;28;20050;-57
2023/01/26 09:09:19;;;;;;;0.50;0.50;;;;;;;3.73;86.64;97332.56;5003065;28;20054;-59
2023/01/26 09:11:46;;;;;;;0.50;0.50;;;;;;;3.68;86.77;97329.19;5005688;28;20046;-55
2023/01/26 09:14:13;;;;;;;0.40;0.40;;;;;;;3.72;87.22;97327.41;4997645;28;20050;-56
2023/01/26 09:16:39;;;;;;;0.40;0.40;;;;;;;3.24;88.10;97253.53;4997009;28;20072;-54
2023/01/26 09:19:06;;;;;;;0.50;0.50;;;;;;;3.68;89.14;97318.22;5006977;28;20084;-57
2023/01/26 09:21:33;;;;;;;0.47;0.47;;;;;;;3.73;90.67;97315.34;4995752;28;20093;-56
2023/01/26 09:24:00;;;;;;;0.40;0.40;;;;;;;3.88;91.17;97307.47;5001452;28;20056;-60
2023/01/26 09:26:28;;;;;;;1.65;1.55;;;;;;;3.55;89.18;97297.25;5006062;28;20050;-56
2023/01/26 09:28:55;;;;;;;0.57;0.57;;;;;;;3.30;93.04;97301.53;5006087;28;20104;-58
2023/01/26 09:31:22;;;;;;;0.47;0.47;;;;;;;3.64;91.00;97300.81;5004037;28;20050;-58
2023/01/26 09:33:49;;;;;;;3.60;1.70;;;;;;;3.77;90.50;97289.72;5004406;28;20146;-58
2023/01/26 09:36:17;;;;;;;0.50;0.50;;;;;;;3.77;91.29;97289.72;5012320;28;20041;-55
2023/01/26 09:38:43;;;;;;;0.45;0.45;;;;;;;3.88;90.11;97282.81;5007099;28;20112;-55
2023/01/26 09:41:25;;;;;;;0.47;0.47;;;;;;;3.98;90.41;97274.25;4991687;28;20054;-55
2023/01/26 09:43:56;;;;;;;0.50;0.50;;;;;;;3.37;89.57;97170.47;5004409;28;20140;-54
2023/01/26 09:46:35;;;;;;;0.43;0.43;;;;;;;3.93;91.25;97265.41;5004414;28;20147;-57
2023/01/26 09:49:12;;;;;;;0.40;0.40;;;;;;;3.94;91.53;97251.38;5001436;28;20057;-57
2023/01/26 09:51:45;;;;;;;1.08;1.08;;;;;;;4.05;90.99;97255.41;4987125;28;20058;-57
2023/01/26 09:54:31;;;;;;;0.50;0.50;;;;;;;3.97;92.49;97256.19;5002344;28;20086;-55
2023/01/26 09:57:10;;;;;;;0.50;0.50;;;;;;;4.08;91.82;97234.75;4986356;28;20057;-54
2023/01/26 09:59:52;;;;;;;1.05;0.98;;;;;;;3.84;91.48;97218.81;5000119;28;20108;-54
2023/01/26 10:02:19;;;;;;;0.50;0.50;;;;;;;4.09;91.70;97245.41;5003466;28;20088;-58
2023/01/26 10:04:50;;;;;;;0.50;0.50;;;;;;;4.13;92.97;97237.31;5005522;28;20424;-58
2023/01/26 10:07:17;;;;;;;0.50;0.50;;;;;;;4.11;92.22;97229.44;5005958;28;20054;-57
2023/01/26 10:09:49;;;;;;;0.50;0.50;;;;;;;4.21;92.25;97223.63;5005675;28;20057;-54
2023/01/26 10:12:25;;;;;;;0.50;0.50;;;;;;;4.17;92.21;97217.16;5005697;28;20089;-56
2023/01/26 10:15:07;;;;;;;0.63;0.63;;;;;;;4.08;93.44;97208.16;5005628;28;20480;-57
2023/01/26 10:17:37;;;;;;;1.35;1.35;;;;;;;3.64;95.22;97167.41;5005637;28;20054;-60
2023/01/26 10:20:13;;;;;;;0.50;0.50;;;;;;;4.06;94.16;97207.66;5005129;28;20132;-54
2023/01/26 10:22:55;;;;;;;0.47;0.47;;;;;;;4.04;94.68;97206.38;5005958;28;20046;-55
2023/01/26 10:25:34;;;;;;;0.50;0.50;;;;;;;3.81;95.03;97183.84;5005451;28;20602;-55
2023/01/26 10:28:13;;;;;;;0.50;0.50;;;;;;;3.89;94.85;97188.50;5004377;28;20057;-58
2023/01/26 10:30:41;;;;;;;0.70;0.70;;;;;;;3.79;95.40;97177.09;4992397;28;20054;-53
2023/01/26 10:33:25;;;;;;;0.88;0.88;;;;;;;3.16;95.75;97111.22;4984139;28;20047;-54
2023/01/26 10:35:52;;;;;;;0.50;0.50;;;;;;;3.67;96.06;97164.03;4988930;28;20061;-57
2023/01/26 10:38:31;;;;;;;0.50;0.50;;;;;;;3.79;97.91;97158.72;4987461;28;20054;-55
2023/01/26 10:41:18;;;;;;;0.50;0.50;;;;;;;3.09;98.52;97037.81;5002682;28;20232;-59
2023/01/26 10:43:53;;;;;;;0.50;0.50;;;;;;;3.81;98.79;97159.19;5003083;28;20097;-59
2023/01/26 10:46:30;;;;;;;0.50;0.50;;;;;;;3.85;96.98;97149.19;4998927;28;20058;-54
2023/01/26 10:49:00;;;;;;;0.50;0.50;;;;;;;3.70;97.23;97157.91;5001034;28;20050;-57
2023/01/26 10:51:28;;;;;;;0.50;0.50;;;;;;;3.59;98.87;97150.34;5002479;28;20425;-58
2023/01/26 10:54:13;;;;;;;0.40;0.40;;;;;;;3.58;97.62;97144.06;5003085;28;20112;-61
2023/01/26 10:56:47;;;;;;;0.47;0.47;;;;;;;3.57;97.83;97142.47;5000082;28;20067;-56
2023/01/26 10:59:31;;;;;;;;;;;;;;;3.49;97.40;97134.25;5004390;28;20049;-58
2023/01/26 11:02:00;;;;;;;0.50;0.50;;;;;;;3.39;98.52;97129.88;5003052;28;19933;-55
2023/01/26 11:04:28;;;;;;;0.40;0.40;;;;;;;3.38;99.01;97116.53;4994127;28;20050;-59
2023/01/26 11:06:55;;;;;;;0.77;0.77;;;;;;;3.39;99.46;97113.47;4989024;28;20141;-57
2023/01/26 11:09:27;;;;;;;0.40;0.40;;;;;;;3.40;100.00;97109.59;4997373;28;20041;-59
2023/01/26 11:12:06;;;;;;;0.40;0.40;;;;;;;3.36;100.00;97105.09;4996968;28;20054;-57
2023/01/26 11:14:34;;;;;;;0.45;0.45;;;;;;;3.38;100.00;97095.44;4993093;28;20120;-56
2023/01/26 11:17:07;;;;;;;0.40;0.40;;;;;;;3.28;100.00;97082.06;5011852;28;20541;-59
2023/01/26 11:19:48;;;;;;;0.40;0.40;;;;;;;3.44;100.00;97074.97;5006443;28;20552;-58
2023/01/26 11:22:22;;;;;;;0.50;0.50;;;;;;;3.43;100.00;97075.31;5001754;28;20061;-59
2023/01/26 11:25:14;;;;;;;0.40;0.40;;;;;;;3.59;100.00;97069.00;5005476;28;20081;-59
2023/01/26 11:28:28;;;;;;;0.40;0.40;;;;;;;3.60;100.00;97065.13;4999373;28;20046;-58
2023/01/26 11:31:13;;;;;;;0.60;0.60;;;;;;;3.53;100.00;97051.13;4985577;28;20062;-57
2023/01/26 11:33:45;;;;;;;1.65;1.65;;;;;;;3.62;100.00;97057.38;4991016;28;20466;-57
2023/01/26 11:36:27;;;;;;;0.80;0.80;;;;;;;3.57;99.05;97063.06;5002297;28;20054;-57
2023/01/26 11:39:01;;;;;;;0.40;0.40;;;;;;;3.50;100.00;97062.72;5003849;28;20077;-55
2023/01/26 11:41:42;;;;;;;8.35;7.60;;;;;;;3.37;100.00;97060.97;5000272;28;20045;-58
2023/01/26 11:44:30;;;;;;;2.00;1.90;;;;;;;3.29;100.00;97061.78;5004125;28;20469;-57
2023/01/26 11:47:16;;;;;;;0.57;0.57;;;;;;;3.27;100.00;97058.56;4992572;28;20484;-59
2023/01/26 11:50:14;;;;;;;2.20;0.88;;;;;;;3.35;100.00;97057.75;4995042;28;20062;-57
2023/01/26 11:53:29;;;;;;;7.53;1.40;;;;;;;3.32;100.00;97046.66;5000080;28;20061;-57
2023/01/26 11:56:47;;;;;;;0.77;0.77;;;;;;;3.40;100.00;97054.84;5003769;28;20053;-58
2023/01/26 11:59:20;;;;;;;0.40;0.40;;;;;;;3.41;100.00;97042.78;4995615;28;20049;-59
2023/01/26 12:01:58;;;;;;;6.53;6.00;;;;;;;3.38;100.00;97035.22;4984340;28;20132;-57
2023/01/26 12:04:27;;;;;;;0.40;0.40;;;;;;;3.38;100.00;97035.22;4998706;28;20133;-59
2023/01/26 12:07:13;;;;;;;0.40;0.40;;;;;;;3.48;100.00;97034.84;4997527;28;20144;-56
2023/01/26 12:09:45;;;;;;;0.60;0.60;;;;;;;3.48;100.00;97025.88;5015805;28;20057;-54
2023/01/26 12:12:23;;;;;;;0.40;0.40;;;;;;;3.54;100.00;97019.88;5009305;28;20115;-57
2023/01/26 12:14:58;;;;;;;3.47;3.15;;;;;;;3.47;100.00;97018.75;5001148;28;20408;-56
2023/01/26 12:17:52;;;;;;;3.83;2.92;;;;;;;0.40;100.00;96579.81;4995307;28;20121;-58
2023/01/26 12:20:40;;;;;;;2.47;2.38;;;;;;;2.91;100.00;97006.09;4987924;28;20073;-57
2023/01/26 12:23:07;;;;;;;0.50;0.50;;;;;;;2.90;100.00;97001.75;4991107;28;20054;-57
2023/01/26 12:25:45;;;;;;;2.90;2.80;;;;;;;2.96;100.00;96964.91;5001077;28;20049;-58
2023/01/26 12:28:28;;;;;;;0.40;0.40;;;;;;;3.29;100.00;96998.03;4984222;28;20172;-59
2023/01/26 12:31:36;;;;;;;0.75;0.75;;;;;;;3.37;100.00;96992.53;5015409;28;20050;-58
2023/01/26 12:34:02;;;;;;;0.40;0.40;;;;;;;3.47;100.00;96989.47;5005226;28;20128;-59
2023/01/26 12:36:57;;;;;;;0.40;0.40;;;;;;;3.34;100.00;96990.44;5003444;28;20050;-56
2023/01/26 12:39:34;;;;;;;3.97;3.78;;;;;;;3.49;100.00;96992.69;4989620;28;20095;-58
2023/01/26 12:42:48;;;;;;;4.60;4.05;;;;;;;3.40;100.00;96975.44;4983899;28;20116;-62
2023/01/26 12:45:26;;;;;;;0.50;0.50;;;;;;;3.29;100.00;96976.91;5000574;28;20057;-59
2023/01/26 12:48:02;;;;;;;0.40;0.40;;;;;;;3.43;100.00;96977.53;5002925;28;20140;-59
2023/01/26 12:50:56;;;;;;;0.45;0.45;;;;;;;3.10;100.00;96938.97;4987815;28;20140;-56
2023/01/26 12:53:30;;;;;;;1.58;1.58;;;;;;;3.38;100.00;96975.00;4988901;28;20157;-58